sensor_id;sensor_type;location;lat;lon;timestamp;pressure;altitude;pressure_sealevel;temperature;humidity
31357;BME280;60001;48.404;11.738;2022-10-16T00:00:37;96327.41;;;14.49;88.45
31357;BME280;60001;48.404;11.738;2022-10-16T00:02:09;96330.34;;;14.48;88.46
31357;BME280;60001;48.404;11.738;2022-10-16T00:03:41;96319.19;;;14.41;88.63
31357;BME280;60001;48.404;11.738;2022-10-16T00:05:14;96325.03;;;14.43;88.36
31357;BME280;60001;48.404;11.738;2022-10-16T00:06:47;96331.69;;;14.40;88.49
31357;BME280;60001;48.404;11.738;2022-10-16T00:08:18;96337.00;;;14.40;89.03
31357;BME280;60001;48.404;11.738;2022-10-16T00:09:50;96344.44;;;14.38;88.97
31357;BME280;60001;48.404;11.738;2022-10-16T00:11:24;96335.44;;;14.34;88.79
31357;BME280;60001;48.404;11.738;2022-10-16T00:12:56;96346.84;;;14.35;88.91
31357;BME280;60001;48.404;11.738;2022-10-16T00:14:27;96340.22;;;14.32;89.03
31357;BME280;60001;48.404;11.738;2022-10-16T00:16:00;96346.34;;;14.33;89.34
31357;BME280;60001;48.404;11.738;2022-10-16T00:17:32;96350.84;;;14.32;89.08
31357;BME280;60001;48.404;11.738;2022-10-16T00:19:05;96343.19;;;14.25;89.34
31357;BME280;60001;48.404;11.738;2022-10-16T00:20:36;96347.94;;;14.29;89.61
31357;BME280;60001;48.404;11.738;2022-10-16T00:27:12;96350.91;;;14.22;89.72
31357;BME280;60001;48.404;11.738;2022-10-16T00:28:45;96345.06;;;14.20;89.65
31357;BME280;60001;48.404;11.738;2022-10-16T00:30:17;96346.94;;;14.19;89.97
31357;BME280;60001;48.404;11.738;2022-10-16T00:31:49;96347.19;;;14.18;89.78
31357;BME280;60001;48.404;11.738;2022-10-16T00:33:21;96341.09;;;14.17;90.09
31357;BME280;60001;48.404;11.738;2022-10-16T00:34:52;96335.53;;;14.14;90.14
31357;BME280;60001;48.404;11.738;2022-10-16T00:36:26;96332.88;;;14.14;90.36
31357;BME280;60001;48.404;11.738;2022-10-16T00:37:57;96326.25;;;14.11;90.62
31357;BME280;60001;48.404;11.738;2022-10-16T00:39:28;96330.50;;;14.12;90.19
31357;BME280;60001;48.404;11.738;2022-10-16T00:41:00;96330.50;;;14.12;90.20
31357;BME280;60001;48.404;11.738;2022-10-16T00:42:32;96329.97;;;14.10;90.40
31357;BME280;60001;48.404;11.738;2022-10-16T00:46:15;96337.94;;;14.10;90.54
31357;BME280;60001;48.404;11.738;2022-10-16T00:47:52;96329.16;;;14.10;90.54
31357;BME280;60001;48.404;11.738;2022-10-16T00:49:25;96327.88;;;14.07;90.37
31357;BME280;60001;48.404;11.738;2022-10-16T00:50:57;96334.75;;;14.08;90.97
31357;BME280;60001;48.404;11.738;2022-10-16T00:52:30;96329.16;;;14.10;90.71
31357;BME280;60001;48.404;11.738;2022-10-16T00:54:04;96330.75;;;14.11;91.09
31357;BME280;60001;48.404;11.738;2022-10-16T00:55:39;96327.34;;;14.05;90.76
31357;BME280;60001;48.404;11.738;2022-10-16T00:57:10;96330.75;;;14.11;90.98
31357;BME280;60001;48.404;11.738;2022-10-16T00:58:43;96343.00;;;14.12;91.30
31357;BME280;60001;48.404;11.738;2022-10-16T01:00:20;96346.44;;;14.12;91.50
31357;BME280;60001;48.404;11.738;2022-10-16T01:01:53;96357.06;;;14.12;91.73
31357;BME280;60001;48.404;11.738;2022-10-16T01:03:27;96355.19;;;14.13;91.53
31357;BME280;60001;48.404;11.738;2022-10-16T01:05:00;96360.22;;;14.14;92.00
31357;BME280;60001;48.404;11.738;2022-10-16T01:06:40;96360.22;;;14.14;91.50
31357;BME280;60001;48.404;11.738;2022-10-16T01:08:21;96352.25;;;14.14;92.08
31357;BME280;60001;48.404;11.738;2022-10-16T01:10:06;96358.38;;;14.15;91.37
31357;BME280;60001;48.404;11.738;2022-10-16T01:11:45;96353.34;;;14.13;92.04
31357;BME280;60001;48.404;11.738;2022-10-16T01:13:22;96352.25;;;14.14;91.58
31357;BME280;60001;48.404;11.738;2022-10-16T01:15:03;96354.63;;;14.16;92.31
31357;BME280;60001;48.404;11.738;2022-10-16T01:16:45;96355.44;;;14.16;91.77
31357;BME280;60001;48.404;11.738;2022-10-16T01:18:30;96346.69;;;14.16;92.01
31357;BME280;60001;48.404;11.738;2022-10-16T01:20:11;96348.53;;;14.15;91.71
31357;BME280;60001;48.404;11.738;2022-10-16T01:21:47;96356.22;;;14.17;92.05
31357;BME280;60001;48.404;11.738;2022-10-16T01:23:29;96349.59;;;14.14;91.87
31357;BME280;60001;48.404;11.738;2022-10-16T01:25:14;96349.84;;;14.18;92.15
31357;BME280;60001;48.404;11.738;2022-10-16T01:27:12;96351.72;;;14.17;91.60
31357;BME280;60001;48.404;11.738;2022-10-16T01:28:51;96349.84;;;14.18;92.08
31357;BME280;60001;48.404;11.738;2022-10-16T01:30:30;96359.41;;;14.19;92.06
31357;BME280;60001;48.404;11.738;2022-10-16T01:32:10;96367.91;;;14.21;92.23
31357;BME280;60001;48.404;11.738;2022-10-16T01:33:54;96369.75;;;14.20;92.00
31357;BME280;60001;48.404;11.738;2022-10-16T01:35:32;96363.66;;;14.20;91.78
31357;BME280;60001;48.404;11.738;2022-10-16T01:37:12;96356.50;;;14.20;92.05
31357;BME280;60001;48.404;11.738;2022-10-16T01:38:49;96358.34;;;14.20;91.65
31357;BME280;60001;48.404;11.738;2022-10-16T01:40:27;96355.44;;;14.16;91.84
31357;BME280;60001;48.404;11.738;2022-10-16T01:42:06;96362.31;;;14.17;92.35
31357;BME280;60001;48.404;11.738;2022-10-16T01:43:45;96360.47;;;14.18;92.21
31357;BME280;60001;48.404;11.738;2022-10-16T01:45:20;96361.03;;;14.15;92.05
31357;BME280;60001;48.404;11.738;2022-10-16T01:46:54;96353.84;;;14.15;92.42
31357;BME280;60001;48.404;11.738;2022-10-16T01:48:25;96353.34;;;14.13;92.06
31357;BME280;60001;48.404;11.738;2022-10-16T01:49:59;96353.34;;;14.13;91.75
31357;BME280;60001;48.404;11.738;2022-10-16T01:51:34;96344.81;;;14.11;91.77
31357;BME280;60001;48.404;11.738;2022-10-16T01:53:12;96348.81;;;14.14;92.43
31357;BME280;60001;48.404;11.738;2022-10-16T01:54:49;96353.34;;;14.13;92.44
31357;BME280;60001;48.404;11.738;2022-10-16T01:56:25;96353.84;;;14.15;92.27
31357;BME280;60001;48.404;11.738;2022-10-16T01:58:01;96358.88;;;14.17;92.68
31357;BME280;60001;48.404;11.738;2022-10-16T01:59:40;96357.81;;;14.18;92.52
31357;BME280;60001;48.404;11.738;2022-10-16T02:01:16;96353.03;;;14.20;92.49
31357;BME280;60001;48.404;11.738;2022-10-16T02:02:53;96353.03;;;14.20;92.11
31357;BME280;60001;48.404;11.738;2022-10-16T02:04:30;96358.34;;;14.20;92.35
31357;BME280;60001;48.404;11.738;2022-10-16T02:06:03;96357.28;;;14.21;92.13
31357;BME280;60001;48.404;11.738;2022-10-16T02:07:35;96357.28;;;14.21;92.06
31357;BME280;60001;48.404;11.738;2022-10-16T02:09:07;96358.06;;;14.21;92.17
31357;BME280;60001;48.404;11.738;2022-10-16T02:10:38;96358.06;;;14.21;92.44
31357;BME280;60001;48.404;11.738;2022-10-16T02:12:15;96355.41;;;14.21;92.63
31357;BME280;60001;48.404;11.738;2022-10-16T02:13:55;96336.03;;;14.21;92.85
31357;BME280;60001;48.404;11.738;2022-10-16T02:15:32;96327.00;;;14.22;92.63
31357;BME280;60001;48.404;11.738;2022-10-16T02:17:10;96342.94;;;14.22;92.42
31357;BME280;60001;48.404;11.738;2022-10-16T02:18:43;96357.00;;;14.22;92.81
31357;BME280;60001;48.404;11.738;2022-10-16T02:20:15;96363.66;;;14.20;92.56
31357;BME280;60001;48.404;11.738;2022-10-16T02:21:54;96367.63;;;14.17;92.59
31357;BME280;60001;48.404;11.738;2022-10-16T02:23:34;96363.16;;;14.13;92.72
31357;BME280;60001;48.404;11.738;2022-10-16T02:25:10;96374.03;;;14.16;93.12
31357;BME280;60001;48.404;11.738;2022-10-16T02:26:51;96378.53;;;14.16;92.64
31357;BME280;60001;48.404;11.738;2022-10-16T02:28:29;96381.75;;;14.13;92.67
31357;BME280;60001;48.404;11.738;2022-10-16T02:30:09;96372.44;;;14.10;91.76
31357;BME280;60001;48.404;11.738;2022-10-16T02:31:49;96371.13;;;14.08;92.17
31357;BME280;60001;48.404;11.738;2022-10-16T02:33:25;96361.06;;;14.05;92.22
31357;BME280;60001;48.404;11.738;2022-10-16T02:35:00;96366.63;;;14.03;92.09
31357;BME280;60001;48.404;11.738;2022-10-16T02:36:34;96366.41;;;13.99;91.94
31357;BME280;60001;48.404;11.738;2022-10-16T02:38:08;96364.28;;;13.96;92.22
31357;BME280;60001;48.404;11.738;2022-10-16T02:39:41;96374.38;;;13.94;92.29
31357;BME280;60001;48.404;11.738;2022-10-16T02:41:14;96367.75;;;13.92;91.81
31357;BME280;60001;48.404;11.738;2022-10-16T02:42:50;96367.25;;;13.85;92.00
31357;BME280;60001;48.404;11.738;2022-10-16T02:44:22;96370.69;;;13.85;91.87
31357;BME280;60001;48.404;11.738;2022-10-16T02:45:53;96371.75;;;13.84;92.31
31357;BME280;60001;48.404;11.738;2022-10-16T02:47:27;96378.09;;;13.83;91.98
31357;BME280;60001;48.404;11.738;2022-10-16T02:48:58;96380.25;;;13.81;92.27
31357;BME280;60001;48.404;11.738;2022-10-16T02:50:30;96380.25;;;13.81;92.37
31357;BME280;60001;48.404;11.738;2022-10-16T02:52:01;96375.22;;;13.80;92.65
31357;BME280;60001;48.404;11.738;2022-10-16T02:53:32;96375.50;;;13.78;91.96
31357;BME280;60001;48.404;11.738;2022-10-16T02:55:05;96369.91;;;13.75;92.00
31357;BME280;60001;48.404;11.738;2022-10-16T02:56:36;96362.78;;;13.70;92.07
31357;BME280;60001;48.404;11.738;2022-10-16T02:58:07;96358.00;;;13.67;92.38
31357;BME280;60001;48.404;11.738;2022-10-16T02:59:39;96348.72;;;13.64;93.04
31357;BME280;60001;48.404;11.738;2022-10-16T03:01:11;96345.28;;;13.64;93.67
31357;BME280;60001;48.404;11.738;2022-10-16T03:02:46;96343.41;;;13.64;93.34
31357;BME280;60001;48.404;11.738;2022-10-16T03:04:18;96342.63;;;13.64;93.37
31357;BME280;60001;48.404;11.738;2022-10-16T03:05:49;96352.97;;;13.65;94.38
31357;BME280;60001;48.404;11.738;2022-10-16T03:07:20;96366.75;;;13.67;94.32
31357;BME280;60001;48.404;11.738;2022-10-16T03:08:52;96362.25;;;13.68;94.08
31357;BME280;60001;48.404;11.738;2022-10-16T03:10:24;96369.13;;;13.69;93.58
31357;BME280;60001;48.404;11.738;2022-10-16T03:11:55;96360.38;;;13.68;94.12
31357;BME280;60001;48.404;11.738;2022-10-16T03:13:26;96366.47;;;13.69;93.34
31357;BME280;60001;48.404;11.738;2022-10-16T03:14:58;96373.41;;;13.70;94.03
31357;BME280;60001;48.404;11.738;2022-10-16T03:16:30;96363.81;;;13.69;93.73
31357;BME280;60001;48.404;11.738;2022-10-16T03:18:03;96365.44;;;13.70;93.53
31357;BME280;60001;48.404;11.738;2022-10-16T03:19:34;96373.41;;;13.70;93.59
31357;BME280;60001;48.404;11.738;2022-10-16T03:21:06;96366.47;;;13.69;93.66
31357;BME280;60001;48.404;11.738;2022-10-16T03:22:38;96372.34;;;13.66;93.53
31357;BME280;60001;48.404;11.738;2022-10-16T03:24:10;96375.50;;;13.68;93.09
31357;BME280;60001;48.404;11.738;2022-10-16T03:25:42;96374.47;;;13.64;93.76
31357;BME280;60001;48.404;11.738;2022-10-16T03:27:12;96382.66;;;13.67;93.75
31357;BME280;60001;48.404;11.738;2022-10-16T03:28:44;96391.69;;;13.66;93.53
31357;BME280;60001;48.404;11.738;2022-10-16T03:30:16;96388.53;;;13.64;93.27
31357;BME280;60001;48.404;11.738;2022-10-16T03:31:47;96387.19;;;13.62;93.23
31357;BME280;60001;48.404;11.738;2022-10-16T03:33:21;96385.59;;;13.61;93.08
31357;BME280;60001;48.404;11.738;2022-10-16T03:34:52;96382.44;;;13.59;92.88
31357;BME280;60001;48.404;11.738;2022-10-16T03:36:24;96378.97;;;13.58;93.64
31357;BME280;60001;48.404;11.738;2022-10-16T03:37:56;96382.72;;;13.57;93.06
31357;BME280;60001;48.404;11.738;2022-10-16T03:39:28;96371.53;;;13.55;92.71
31357;BME280;60001;48.404;11.738;2022-10-16T03:40:59;96375.25;;;13.54;93.25
31357;BME280;60001;48.404;11.738;2022-10-16T03:42:30;96376.06;;;13.55;93.03
31357;BME280;60001;48.404;11.738;2022-10-16T03:44:01;96376.84;;;13.55;93.48
31357;BME280;60001;48.404;11.738;2022-10-16T03:45:33;96376.34;;;13.53;93.05
31357;BME280;60001;48.404;11.738;2022-10-16T03:47:05;96377.63;;;13.56;92.95
31357;BME280;60001;48.404;11.738;2022-10-16T03:48:38;96382.16;;;13.55;93.60
31357;BME280;60001;48.404;11.738;2022-10-16T03:50:10;96380.84;;;13.58;93.77
31357;BME280;60001;48.404;11.738;2022-10-16T03:51:41;96384.00;;;13.60;94.14
31357;BME280;60001;48.404;11.738;2022-10-16T03:53:14;96390.63;;;13.62;94.00
31357;BME280;60001;48.404;11.738;2022-10-16T03:54:44;96381.34;;;13.65;93.88
31357;BME280;60001;48.404;11.738;2022-10-16T03:56:17;96384.53;;;13.67;94.08
31357;BME280;60001;48.404;11.738;2022-10-16T03:57:49;96382.16;;;13.70;93.58
31357;BME280;60001;48.404;11.738;2022-10-16T03:59:20;96389.03;;;13.71;94.13
31357;BME280;60001;48.404;11.738;2022-10-16T04:00:52;96385.31;;;13.73;94.04
31357;BME280;60001;48.404;11.738;2022-10-16T04:02:23;96386.63;;;13.75;93.91
31357;BME280;60001;48.404;11.738;2022-10-16T04:03:56;96385.84;;;13.75;94.04
31357;BME280;60001;48.404;11.738;2022-10-16T04:05:27;96400.69;;;13.76;94.20
31357;BME280;60001;48.404;11.738;2022-10-16T04:06:59;96401.25;;;13.78;94.14
31357;BME280;60001;48.404;11.738;2022-10-16T04:08:30;96400.44;;;13.77;94.21
31357;BME280;60001;48.404;11.738;2022-10-16T04:10:05;96403.88;;;13.78;93.75
31357;BME280;60001;48.404;11.738;2022-10-16T04:11:37;96400.44;;;13.77;94.11
31357;BME280;60001;48.404;11.738;2022-10-16T04:13:09;96405.47;;;13.79;93.86
31357;BME280;60001;48.404;11.738;2022-10-16T04:14:41;96408.13;;;13.79;94.12
31357;BME280;60001;48.404;11.738;2022-10-16T04:16:13;96396.97;;;13.82;94.03
31357;BME280;60001;48.404;11.738;2022-10-16T04:17:44;96399.91;;;13.80;93.91
31357;BME280;60001;48.404;11.738;2022-10-16T04:19:19;96399.34;;;13.83;93.85
31357;BME280;60001;48.404;11.738;2022-10-16T04:20:50;96414.22;;;13.84;94.07
31357;BME280;60001;48.404;11.738;2022-10-16T04:22:22;96406.25;;;13.84;94.09
31357;BME280;60001;48.404;11.738;2022-10-16T04:23:54;96401.75;;;13.85;93.87
31357;BME280;60001;48.404;11.738;2022-10-16T04:25:25;96402.53;;;13.85;94.06
31357;BME280;60001;48.404;11.738;2022-10-16T04:26:57;96398.81;;;13.86;93.68
31357;BME280;60001;48.404;11.738;2022-10-16T04:28:29;96401.47;;;13.86;93.66
31357;BME280;60001;48.404;11.738;2022-10-16T04:30:01;96410.22;;;13.87;93.98
31357;BME280;60001;48.404;11.738;2022-10-16T04:31:33;96406.50;;;13.88;93.85
31357;BME280;60001;48.404;11.738;2022-10-16T04:33:05;96401.47;;;13.86;93.47
31357;BME280;60001;48.404;11.738;2022-10-16T04:34:39;96401.19;;;13.88;93.83
31357;BME280;60001;48.404;11.738;2022-10-16T04:36:11;96402.00;;;13.88;93.45
31357;BME280;60001;48.404;11.738;2022-10-16T04:37:43;96398.03;;;13.86;93.81
31357;BME280;60001;48.404;11.738;2022-10-16T04:39:14;96395.63;;;13.89;93.61
31357;BME280;60001;48.404;11.738;2022-10-16T04:40:46;96395.63;;;13.89;93.67
31357;BME280;60001;48.404;11.738;2022-10-16T04:42:17;96394.03;;;13.88;93.71
31357;BME280;60001;48.404;11.738;2022-10-16T04:43:49;96390.59;;;13.88;93.43
31357;BME280;60001;48.404;11.738;2022-10-16T04:45:21;96391.38;;;13.88;93.88
31357;BME280;60001;48.404;11.738;2022-10-16T04:46:53;96382.91;;;13.86;93.47
31357;BME280;60001;48.404;11.738;2022-10-16T04:48:23;96385.78;;;13.90;93.61
31357;BME280;60001;48.404;11.738;2022-10-16T04:49:56;96386.34;;;13.92;93.50
31357;BME280;60001;48.404;11.738;2022-10-16T04:51:27;96387.91;;;13.93;93.76
31357;BME280;60001;48.404;11.738;2022-10-16T04:52:59;96389.50;;;13.94;93.53
31357;BME280;60001;48.404;11.738;2022-10-16T04:54:30;96388.72;;;13.93;93.54
31357;BME280;60001;48.404;11.738;2022-10-16T04:56:02;96391.38;;;13.93;93.02
31357;BME280;60001;48.404;11.738;2022-10-16T04:57:33;96393.22;;;13.93;92.83
31357;BME280;60001;48.404;11.738;2022-10-16T04:59:05;96397.75;;;13.92;92.87
31357;BME280;60001;48.404;11.738;2022-10-16T05:00:37;96407.28;;;13.93;93.24
31357;BME280;60001;48.404;11.738;2022-10-16T05:02:09;96397.47;;;13.94;92.83
31357;BME280;60001;48.404;11.738;2022-10-16T05:03:40;96410.47;;;13.95;93.13
31357;BME280;60001;48.404;11.738;2022-10-16T05:05:13;96401.44;;;13.96;92.78
31357;BME280;60001;48.404;11.738;2022-10-16T05:06:45;96416.56;;;13.96;92.73
31357;BME280;60001;48.404;11.738;2022-10-16T05:08:18;96417.38;;;13.96;92.56
31357;BME280;60001;48.404;11.738;2022-10-16T05:09:49;96416.56;;;13.96;92.81
31357;BME280;60001;48.404;11.738;2022-10-16T05:11:20;96409.66;;;13.95;92.29
31357;BME280;60001;48.404;11.738;2022-10-16T05:12:52;96405.44;;;13.94;92.18
31357;BME280;60001;48.404;11.738;2022-10-16T05:14:24;96403.28;;;13.96;92.39
31357;BME280;60001;48.404;11.738;2022-10-16T05:15:55;96405.94;;;13.96;92.77
31357;BME280;60001;48.404;11.738;2022-10-16T05:17:27;96407.81;;;13.95;92.64
31357;BME280;60001;48.404;11.738;2022-10-16T05:18:59;96396.41;;;13.95;92.39
31357;BME280;60001;48.404;11.738;2022-10-16T05:20:32;96394.53;;;13.95;92.27
31357;BME280;60001;48.404;11.738;2022-10-16T05:22:04;96399.84;;;13.95;92.10
31357;BME280;60001;48.404;11.738;2022-10-16T05:23:35;96395.59;;;13.94;92.55
31357;BME280;60001;48.404;11.738;2022-10-16T05:25:07;96391.66;;;13.92;92.03
31357;BME280;60001;48.404;11.738;2022-10-16T05:26:40;96389.25;;;13.90;92.19
31357;BME280;60001;48.404;11.738;2022-10-16T05:28:12;96387.66;;;13.89;91.90
31357;BME280;60001;48.404;11.738;2022-10-16T05:29:44;96392.72;;;13.91;92.52
31357;BME280;60001;48.404;11.738;2022-10-16T05:31:16;96392.72;;;13.91;92.12
31357;BME280;60001;48.404;11.738;2022-10-16T05:32:48;96392.16;;;13.89;92.23
31357;BME280;60001;48.404;11.738;2022-10-16T05:34:20;96392.97;;;13.89;92.12
31357;BME280;60001;48.404;11.738;2022-10-16T05:35:54;96389.25;;;13.90;92.30
31357;BME280;60001;48.404;11.738;2022-10-16T05:37:26;96384.19;;;13.89;91.83
31357;BME280;60001;48.404;11.738;2022-10-16T05:38:58;96397.47;;;13.89;91.94
31357;BME280;60001;48.404;11.738;2022-10-16T05:40:30;96403.63;;;13.84;92.21
31357;BME280;60001;48.404;11.738;2022-10-16T05:42:02;96403.06;;;13.87;92.09
31357;BME280;60001;48.404;11.738;2022-10-16T05:43:32;96413.69;;;13.87;91.77
31357;BME280;60001;48.404;11.738;2022-10-16T05:45:05;96413.94;;;13.86;91.82
31357;BME280;60001;48.404;11.738;2022-10-16T05:46:37;96419.53;;;13.84;91.37
31357;BME280;60001;48.404;11.738;2022-10-16T05:48:08;96419.00;;;13.82;91.56
31357;BME280;60001;48.404;11.738;2022-10-16T05:49:40;96426.44;;;13.80;91.21
31357;BME280;60001;48.404;11.738;2022-10-16T05:51:14;96423.25;;;13.78;91.81
31357;BME280;60001;48.404;11.738;2022-10-16T05:52:46;96423.78;;;13.75;91.32
31357;BME280;60001;48.404;11.738;2022-10-16T05:54:18;96420.59;;;13.73;91.35
31357;BME280;60001;48.404;11.738;2022-10-16T05:55:52;96414.00;;;13.70;91.35
31357;BME280;60001;48.404;11.738;2022-10-16T05:57:22;96422.75;;;13.71;91.72
31357;BME280;60001;48.404;11.738;2022-10-16T05:58:54;96425.63;;;13.69;91.53
31357;BME280;60001;48.404;11.738;2022-10-16T06:00:26;96423.00;;;13.69;91.18
31357;BME280;60001;48.404;11.738;2022-10-16T06:01:58;96426.19;;;13.66;91.40
31357;BME280;60001;48.404;11.738;2022-10-16T06:03:30;96426.19;;;13.66;91.36
31357;BME280;60001;48.404;11.738;2022-10-16T06:05:01;96426.47;;;13.65;91.07
31357;BME280;60001;48.404;11.738;2022-10-16T06:06:34;96422.22;;;13.64;91.51
31357;BME280;60001;48.404;11.738;2022-10-16T06:08:06;96423.25;;;13.63;91.83
31357;BME280;60001;48.404;11.738;2022-10-16T06:09:38;96428.56;;;13.63;91.59
31357;BME280;60001;48.404;11.738;2022-10-16T06:11:14;96429.38;;;13.63;91.83
31357;BME280;60001;48.404;11.738;2022-10-16T06:12:46;96432.03;;;13.63;91.96
31357;BME280;60001;48.404;11.738;2022-10-16T06:14:18;96427.53;;;13.64;91.91
31357;BME280;60001;48.404;11.738;2022-10-16T06:15:49;96433.63;;;13.64;92.42
31357;BME280;60001;48.404;11.738;2022-10-16T06:17:21;96426.47;;;13.65;91.50
31357;BME280;60001;48.404;11.738;2022-10-16T06:18:54;96439.72;;;13.65;91.82
31357;BME280;60001;48.404;11.738;2022-10-16T06:20:27;96432.56;;;13.65;92.10
31357;BME280;60001;48.404;11.738;2022-10-16T06:22:00;96443.44;;;13.69;92.38
31357;BME280;60001;48.404;11.738;2022-10-16T06:23:33;96443.19;;;13.70;92.13
31357;BME280;60001;48.404;11.738;2022-10-16T06:25:05;96448.22;;;13.72;91.87
31357;BME280;60001;48.404;11.738;2022-10-16T06:26:38;96450.59;;;13.74;91.77
31357;BME280;60001;48.404;11.738;2022-10-16T06:28:13;96444.50;;;13.73;91.85
31357;BME280;60001;48.404;11.738;2022-10-16T06:29:45;96447.94;;;13.74;91.80
31357;BME280;60001;48.404;11.738;2022-10-16T06:31:17;96445.56;;;13.72;91.63
31357;BME280;60001;48.404;11.738;2022-10-16T06:32:48;96452.97;;;13.75;91.58
31357;BME280;60001;48.404;11.738;2022-10-16T06:34:20;96458.28;;;13.75;92.04
31357;BME280;60001;48.404;11.738;2022-10-16T06:35:52;96461.72;;;13.76;91.62
31357;BME280;60001;48.404;11.738;2022-10-16T06:37:26;96458.28;;;13.75;92.40
31357;BME280;60001;48.404;11.738;2022-10-16T06:38:58;96465.19;;;13.76;91.54
31357;BME280;60001;48.404;11.738;2022-10-16T06:40:30;96472.09;;;13.77;91.60
31357;BME280;60001;48.404;11.738;2022-10-16T06:42:02;96467.31;;;13.79;92.06
31357;BME280;60001;48.404;11.738;2022-10-16T06:43:34;96470.50;;;13.81;91.81
31357;BME280;60001;48.404;11.738;2022-10-16T06:45:06;96473.66;;;13.83;92.40
31357;BME280;60001;48.404;11.738;2022-10-16T06:46:38;96476.06;;;13.85;92.00
31357;BME280;60001;48.404;11.738;2022-10-16T06:48:10;96476.59;;;13.87;92.29
31357;BME280;60001;48.404;11.738;2022-10-16T06:49:41;96488.53;;;13.89;92.21
31357;BME280;60001;48.404;11.738;2022-10-16T06:51:15;96480.31;;;13.91;92.41
31357;BME280;60001;48.404;11.738;2022-10-16T06:52:48;96492.25;;;13.98;92.34
31357;BME280;60001;48.404;11.738;2022-10-16T06:54:19;96491.16;;;14.05;92.47
31357;BME280;60001;48.404;11.738;2022-10-16T06:55:50;96485.84;;;14.10;92.81
31357;BME280;60001;48.404;11.738;2022-10-16T06:57:22;96491.38;;;14.18;92.41
31357;BME280;60001;48.404;11.738;2022-10-16T06:58:54;96496.97;;;14.27;92.92
31357;BME280;60001;48.404;11.738;2022-10-16T07:00:26;96495.31;;;14.36;92.49
31357;BME280;60001;48.404;11.738;2022-10-16T07:01:58;96490.25;;;14.45;92.80
31357;BME280;60001;48.404;11.738;2022-10-16T07:03:30;96486.03;;;14.49;92.01
31357;BME280;60001;48.404;11.738;2022-10-16T07:05:02;96485.22;;;14.53;91.83
31357;BME280;60001;48.404;11.738;2022-10-16T07:06:34;96484.66;;;14.57;91.54
31357;BME280;60001;48.404;11.738;2022-10-16T07:08:07;96490.78;;;14.57;91.51
31357;BME280;60001;48.404;11.738;2022-10-16T07:09:38;96498.47;;;14.59;90.86
31357;BME280;60001;48.404;11.738;2022-10-16T07:11:11;96502.72;;;14.60;90.58
31357;BME280;60001;48.404;11.738;2022-10-16T07:12:43;96492.63;;;14.57;90.24
31357;BME280;60001;48.404;11.738;2022-10-16T07:14:19;96493.69;;;14.61;90.19
31357;BME280;60001;48.404;11.738;2022-10-16T07:15:51;96502.72;;;14.60;89.76
31357;BME280;60001;48.404;11.738;2022-10-16T07:17:23;96494.72;;;14.60;89.75
31357;BME280;60001;48.404;11.738;2022-10-16T07:18:55;96501.13;;;14.59;89.61
31357;BME280;60001;48.404;11.738;2022-10-16T07:20:29;96497.94;;;14.57;89.54
31357;BME280;60001;48.404;11.738;2022-10-16T07:22:00;96505.41;;;14.55;88.90
31357;BME280;60001;48.404;11.738;2022-10-16T07:23:34;96511.47;;;14.60;89.10
31357;BME280;60001;48.404;11.738;2022-10-16T07:25:06;96506.44;;;14.59;88.95
31357;BME280;60001;48.404;11.738;2022-10-16T07:26:45;96517.34;;;14.62;89.44
31357;BME280;60001;48.404;11.738;2022-10-16T07:28:17;96523.16;;;14.64;89.22
31357;BME280;60001;48.404;11.738;2022-10-16T07:29:49;96510.16;;;14.63;89.33
31357;BME280;60001;48.404;11.738;2022-10-16T07:31:21;96522.88;;;14.71;89.25
31357;BME280;60001;48.404;11.738;2022-10-16T07:32:52;96518.88;;;14.73;89.09
31357;BME280;60001;48.404;11.738;2022-10-16T07:34:25;96522.06;;;14.75;88.60
31357;BME280;60001;48.404;11.738;2022-10-16T07:36:00;96522.56;;;14.77;88.46
31357;BME280;60001;48.404;11.738;2022-10-16T07:37:32;96522.81;;;14.81;88.54
31357;BME280;60001;48.404;11.738;2022-10-16T07:39:05;96521.22;;;14.85;88.58
31357;BME280;60001;48.404;11.738;2022-10-16T07:40:37;96530.75;;;14.91;88.55
31357;BME280;60001;48.404;11.738;2022-10-16T07:42:09;96531.81;;;14.95;88.01
31357;BME280;60001;48.404;11.738;2022-10-16T07:43:45;96532.84;;;14.99;87.79
31357;BME280;60001;48.404;11.738;2022-10-16T07:45:17;96540.81;;;15.04;87.79
31357;BME280;60001;48.404;11.738;2022-10-16T07:46:49;96539.44;;;15.07;87.59
31357;BME280;60001;48.404;11.738;2022-10-16T07:48:22;96537.84;;;15.11;87.13
31357;BME280;60001;48.404;11.738;2022-10-16T07:49:54;96545.81;;;15.16;86.77
31357;BME280;60001;48.404;11.738;2022-10-16T07:51:26;96542.31;;;15.21;86.42
31357;BME280;60001;48.404;11.738;2022-10-16T07:52:58;96539.38;;;15.22;86.30
31357;BME280;60001;48.404;11.738;2022-10-16T07:54:31;96546.03;;;15.25;86.06
31357;BME280;60001;48.404;11.738;2022-10-16T07:56:05;96546.22;;;15.33;85.64
31357;BME280;60001;48.404;11.738;2022-10-16T07:57:37;96551.81;;;15.37;85.34
31357;BME280;60001;48.404;11.738;2022-10-16T07:59:09;96549.09;;;15.42;85.36
31357;BME280;60001;48.404;11.738;2022-10-16T08:00:42;96545.63;;;15.47;85.40
31357;BME280;60001;48.404;11.738;2022-10-16T08:02:14;96546.91;;;15.49;84.68
31357;BME280;60001;48.404;11.738;2022-10-16T08:03:48;96548.97;;;15.57;84.11
31357;BME280;60001;48.404;11.738;2022-10-16T08:05:20;96548.19;;;15.62;84.12
31357;BME280;60001;48.404;11.738;2022-10-16T08:06:52;96549.75;;;15.68;83.67
31357;BME280;60001;48.404;11.738;2022-10-16T08:08:25;96550.78;;;15.72;83.61
31357;BME280;60001;48.404;11.738;2022-10-16T08:09:58;96547.28;;;15.77;83.12
31357;BME280;60001;48.404;11.738;2022-10-16T08:11:30;96554.44;;;15.81;83.01
31357;BME280;60001;48.404;11.738;2022-10-16T08:13:02;96550.16;;;15.85;82.83
31357;BME280;60001;48.404;11.738;2022-10-16T08:14:34;96554.91;;;15.88;82.93